sensor_id;sensor_type;location;lat;lon;timestamp;pressure;altitude;pressure_sealevel;temperature;humidity
11041;BME280;5573;49.592;8.662;2023-02-20T00:01:04;100988.22;;;9.53;100.00
11041;BME280;5573;49.592;8.662;2023-02-20T00:03:33;100989.81;;;9.54;100.00
11041;BME280;5573;49.592;8.662;2023-02-20T00:06:01;100995.53;;;9.49;100.00
11041;BME280;5573;49.592;8.662;2023-02-20T00:08:28;100991.09;;;9.45;100.00
11041;BME280;5573;49.592;8.662;2023-02-20T00:10:56;100979.84;;;9.50;100.00
11041;BME280;5573;49.592;8.662;2023-02-20T00:13:24;100983.66;;;9.45;100.00
11041;BME280;5573;49.592;8.662;2023-02-20T00:15:51;100985.59;;;9.45;100.00
11041;BME280;5573;49.592;8.662;2023-02-20T00:18:19;100978.81;;;9.42;100.00
11041;BME280;5573;49.592;8.662;2023-02-20T00:20:48;100982.72;;;9.41;100.00
11041;BME280;5573;49.592;8.662;2023-02-20T00:23:16;100974.84;;;9.40;100.00
11041;BME280;5573;49.592;8.662;2023-02-20T00:25:45;100967.06;;;9.29;100.00
11041;BME280;5573;49.592;8.662;2023-02-20T00:28:13;100977.13;;;9.25;100.00
11041;BME280;5573;49.592;8.662;2023-02-20T00:30:41;100972.56;;;9.17;100.00
11041;BME280;5573;49.592;8.662;2023-02-20T00:33:12;100961.69;;;9.08;100.00
11041;BME280;5573;49.592;8.662;2023-02-20T00:35:40;100956.78;;;9.02;100.00
11041;BME280;5573;49.592;8.662;2023-02-20T00:38:09;100957.34;;;8.95;100.00
11041;BME280;5573;49.592;8.662;2023-02-20T00:40:37;100957.47;;;8.99;100.00
11041;BME280;5573;49.592;8.662;2023-02-20T00:43:04;100965.91;;;8.93;100.00
11041;BME280;5573;49.592;8.662;2023-02-20T00:45:33;100960.44;;;8.93;100.00
11041;BME280;5573;49.592;8.662;2023-02-20T00:48:01;100960.69;;;9.01;100.00
11041;BME280;5573;49.592;8.662;2023-02-20T00:50:29;100965.00;;;9.02;100.00
11041;BME280;5573;49.592;8.662;2023-02-20T00:52:57;100962.50;;;8.97;100.00
11041;BME280;5573;49.592;8.662;2023-02-20T00:55:26;100932.41;;;8.75;100.00
11041;BME280;5573;49.592;8.662;2023-02-20T00:57:53;100957.91;;;8.88;100.00
11041;BME280;5573;49.592;8.662;2023-02-20T01:00:24;100960.72;;;8.55;100.00
11041;BME280;5573;49.592;8.662;2023-02-20T01:02:52;100967.09;;;8.47;100.00
11041;BME280;5573;49.592;8.662;2023-02-20T01:05:22;100952.88;;;8.32;100.00
11041;BME280;5573;49.592;8.662;2023-02-20T01:07:51;100960.25;;;8.20;100.00
11041;BME280;5573;49.592;8.662;2023-02-20T01:10:19;100953.88;;;8.28;100.00
11041;BME280;5573;49.592;8.662;2023-02-20T01:12:48;100964.75;;;8.24;100.00
11041;BME280;5573;49.592;8.662;2023-02-20T01:15:16;100948.25;;;8.12;100.00
11041;BME280;5573;49.592;8.662;2023-02-20T01:17:45;100958.00;;;8.01;100.00
11041;BME280;5573;49.592;8.662;2023-02-20T01:20:13;100958.41;;;7.90;100.00
11041;BME280;5573;49.592;8.662;2023-02-20T01:22:41;100965.38;;;7.67;100.00
11041;BME280;5573;49.592;8.662;2023-02-20T01:25:09;100957.06;;;7.54;100.00
11041;BME280;5573;49.592;8.662;2023-02-20T01:27:37;100960.72;;;7.38;100.00
11041;BME280;5573;49.592;8.662;2023-02-20T01:30:07;100956.59;;;7.02;100.00
11041;BME280;5573;49.592;8.662;2023-02-20T01:32:35;100955.50;;;6.94;100.00
11041;BME280;5573;49.592;8.662;2023-02-20T01:35:04;100955.69;;;6.89;100.00
11041;BME280;5573;49.592;8.662;2023-02-20T01:37:32;100949.25;;;6.85;100.00
11041;BME280;5573;49.592;8.662;2023-02-20T01:40:01;100961.84;;;6.77;100.00
11041;BME280;5573;49.592;8.662;2023-02-20T01:42:31;100945.97;;;6.70;100.00
11041;BME280;5573;49.592;8.662;2023-02-20T01:45:26;100964.47;;;6.65;100.00
11041;BME280;5573;49.592;8.662;2023-02-20T01:47:55;100953.25;;;6.49;100.00
11041;BME280;5573;49.592;8.662;2023-02-20T01:50:28;100964.69;;;6.34;100.00
11041;BME280;5573;49.592;8.662;2023-02-20T01:53:00;100962.63;;;6.22;100.00
11041;BME280;5573;49.592;8.662;2023-02-20T01:55:30;100953.16;;;6.19;100.00
11041;BME280;5573;49.592;8.662;2023-02-20T01:58:03;100951.41;;;6.15;100.00
11041;BME280;5573;49.592;8.662;2023-02-20T02:00:50;100926.97;;;5.83;100.00
11041;BME280;5573;49.592;8.662;2023-02-20T02:03:20;100957.47;;;5.94;100.00
11041;BME280;5573;49.592;8.662;2023-02-20T02:05:52;100958.34;;;5.95;100.00
11041;BME280;5573;49.592;8.662;2023-02-20T02:08:22;100957.66;;;5.89;100.00
11041;BME280;5573;49.592;8.662;2023-02-20T02:10:53;100947.41;;;5.95;100.00
11041;BME280;5573;49.592;8.662;2023-02-20T02:13:24;100948.03;;;6.00;100.00
11041;BME280;5573;49.592;8.662;2023-02-20T02:16:00;100944.97;;;6.02;100.00
11041;BME280;5573;49.592;8.662;2023-02-20T02:18:46;100927.31;;;5.99;100.00
11041;BME280;5573;49.592;8.662;2023-02-20T02:25:00;100936.47;;;5.95;100.00
11041;BME280;5573;49.592;8.662;2023-02-20T02:27:53;100943.69;;;5.90;100.00
11041;BME280;5573;49.592;8.662;2023-02-20T02:30:48;100934.84;;;5.85;100.00
11041;BME280;5573;49.592;8.662;2023-02-20T02:33:43;100927.13;;;5.87;100.00
11041;BME280;5573;49.592;8.662;2023-02-20T02:36:27;100930.81;;;6.08;100.00
11041;BME280;5573;49.592;8.662;2023-02-20T02:39:02;100922.59;;;6.26;100.00
11041;BME280;5573;49.592;8.662;2023-02-20T02:41:39;100918.03;;;6.56;100.00
11041;BME280;5573;49.592;8.662;2023-02-20T02:44:13;100918.41;;;6.76;100.00
11041;BME280;5573;49.592;8.662;2023-02-20T02:46:49;100910.78;;;6.90;100.00
11041;BME280;5573;49.592;8.662;2023-02-20T02:49:24;100912.53;;;6.95;100.00
11041;BME280;5573;49.592;8.662;2023-02-20T02:51:55;100916.44;;;7.15;100.00
11041;BME280;5573;49.592;8.662;2023-02-20T02:54:25;100918.69;;;7.12;100.00
11041;BME280;5573;49.592;8.662;2023-02-20T02:57:14;100917.44;;;7.10;100.00
11041;BME280;5573;49.592;8.662;2023-02-20T02:59:45;100909.56;;;7.08;100.00
11041;BME280;5573;49.592;8.662;2023-02-20T03:02:17;100918.69;;;7.12;100.00
11041;BME280;5573;49.592;8.662;2023-02-20T03:04:48;100906.31;;;7.15;100.00
11041;BME280;5573;49.592;8.662;2023-02-20T03:07:18;100916.59;;;7.18;100.00
11041;BME280;5573;49.592;8.662;2023-02-20T03:09:49;100918.69;;;7.12;100.00
11041;BME280;5573;49.592;8.662;2023-02-20T03:12:20;100919.91;;;7.03;100.00
11041;BME280;5573;49.592;8.662;2023-02-20T03:14:55;100915.91;;;7.00;100.00
11041;BME280;5573;49.592;8.662;2023-02-20T03:17:47;100912.38;;;6.91;100.00
11041;BME280;5573;49.592;8.662;2023-02-20T03:20:20;100922.22;;;6.92;100.00
11041;BME280;5573;49.592;8.662;2023-02-20T03:22:52;100920.28;;;6.92;100.00
11041;BME280;5573;49.592;8.662;2023-02-20T03:25:22;100923.09;;;7.05;100.00
11041;BME280;5573;49.592;8.662;2023-02-20T03:27:57;100916.22;;;6.99;100.00
11041;BME280;5573;49.592;8.662;2023-02-20T03:30:33;100910.78;;;6.90;100.00
11041;BME280;5573;49.592;8.662;2023-02-20T03:33:08;100886.59;;;6.71;100.00
11041;BME280;5573;49.592;8.662;2023-02-20T03:35:56;100902.00;;;6.76;100.00
11041;BME280;5573;49.592;8.662;2023-02-20T03:38:46;100903.16;;;6.75;100.00
11041;BME280;5573;49.592;8.662;2023-02-20T03:41:37;100908.00;;;6.69;100.00
11041;BME280;5573;49.592;8.662;2023-02-20T03:44:26;100908.31;;;6.67;100.00
11041;BME280;5573;49.592;8.662;2023-02-20T03:46:57;100901.59;;;6.65;100.00
11041;BME280;5573;49.592;8.662;2023-02-20T03:49:31;100912.63;;;6.77;100.00
11041;BME280;5573;49.592;8.662;2023-02-20T03:52:02;100907.22;;;6.60;100.00
11041;BME280;5573;49.592;8.662;2023-02-20T03:54:35;100912.16;;;6.75;100.00
11041;BME280;5573;49.592;8.662;2023-02-20T03:57:06;100916.94;;;6.78;100.00
11041;BME280;5573;49.592;8.662;2023-02-20T03:59:41;100919.94;;;6.64;100.00
11041;BME280;5573;49.592;8.662;2023-02-20T04:02:25;100896.78;;;6.53;100.00
11041;BME280;5573;49.592;8.662;2023-02-20T04:04:57;100922.94;;;6.71;100.00
11041;BME280;5573;49.592;8.662;2023-02-20T04:07:29;100923.72;;;6.72;100.00
11041;BME280;5573;49.592;8.662;2023-02-20T04:10:03;100923.94;;;6.67;100.00
11041;BME280;5573;49.592;8.662;2023-02-20T04:12:36;100921.94;;;6.76;100.00
11041;BME280;5573;49.592;8.662;2023-02-20T04:15:07;100935.47;;;6.81;100.00
11041;BME280;5573;49.592;8.662;2023-02-20T04:17:41;100918.75;;;6.74;100.00
11041;BME280;5573;49.592;8.662;2023-02-20T04:20:14;100920.69;;;6.74;100.00
11041;BME280;5573;49.592;8.662;2023-02-20T04:22:55;100926.47;;;6.72;100.00
11041;BME280;5573;49.592;8.662;2023-02-20T04:25:29;100922.63;;;6.73;100.00
11041;BME280;5573;49.592;8.662;2023-02-20T04:28:03;100921.81;;;6.72;100.00
11041;BME280;5573;49.592;8.662;2023-02-20T04:30:42;100936.59;;;6.71;100.00
11041;BME280;5573;49.592;8.662;2023-02-20T04:33:13;100910.56;;;6.65;100.00
11041;BME280;5573;49.592;8.662;2023-02-20T04:35:42;100925.72;;;6.63;100.00
11041;BME280;5573;49.592;8.662;2023-02-20T04:38:11;100923.97;;;6.58;100.00
11041;BME280;5573;49.592;8.662;2023-02-20T04:40:40;100914.63;;;6.59;100.00
11041;BME280;5573;49.592;8.662;2023-02-20T04:43:08;100915.25;;;6.65;100.00
11041;BME280;5573;49.592;8.662;2023-02-20T04:45:36;100918.50;;;6.58;100.00
11041;BME280;5573;49.592;8.662;2023-02-20T04:48:04;100921.38;;;6.53;100.00
11041;BME280;5573;49.592;8.662;2023-02-20T04:50:33;100914.41;;;6.35;100.00
11041;BME280;5573;49.592;8.662;2023-02-20T04:53:03;100922.41;;;6.40;100.00
11041;BME280;5573;49.592;8.662;2023-02-20T04:55:30;100925.44;;;6.47;100.00
11041;BME280;5573;49.592;8.662;2023-02-20T04:58:02;100924.34;;;6.39;100.00
11041;BME280;5573;49.592;8.662;2023-02-20T05:00:43;100925.31;;;6.43;100.00
11041;BME280;5573;49.592;8.662;2023-02-20T05:03:10;100930.94;;;6.29;100.00
11041;BME280;5573;49.592;8.662;2023-02-20T05:05:39;100935.91;;;6.36;100.00
11041;BME280;5573;49.592;8.662;2023-02-20T05:08:07;100921.16;;;6.28;100.00
11041;BME280;5573;49.592;8.662;2023-02-20T05:10:35;100938.03;;;6.30;100.00
11041;BME280;5573;49.592;8.662;2023-02-20T05:13:03;100943.63;;;6.34;100.00
11041;BME280;5573;49.592;8.662;2023-02-20T05:15:31;100940.09;;;6.34;100.00
11041;BME280;5573;49.592;8.662;2023-02-20T05:17:59;100932.25;;;6.23;100.00
11041;BME280;5573;49.592;8.662;2023-02-20T05:20:27;100928.69;;;6.31;100.00
11041;BME280;5573;49.592;8.662;2023-02-20T05:23:10;100921.47;;;6.27;100.00
11041;BME280;5573;49.592;8.662;2023-02-20T05:25:38;100925.50;;;6.29;100.00
11041;BME280;5573;49.592;8.662;2023-02-20T05:28:06;100925.81;;;6.19;100.00
11041;BME280;5573;49.592;8.662;2023-02-20T05:30:34;100927.44;;;6.20;100.00
11041;BME280;5573;49.592;8.662;2023-02-20T05:33:01;100932.44;;;6.18;100.00
11041;BME280;5573;49.592;8.662;2023-02-20T05:35:29;100925.19;;;6.22;100.00
11041;BME280;5573;49.592;8.662;2023-02-20T05:37:58;100925.22;;;6.14;100.00
11041;BME280;5573;49.592;8.662;2023-02-20T05:40:27;100916.19;;;6.13;100.00
11041;BME280;5573;49.592;8.662;2023-02-20T05:42:55;100923.91;;;6.11;100.00
11041;BME280;5573;49.592;8.662;2023-02-20T05:45:22;100929.03;;;6.21;100.00
11041;BME280;5573;49.592;8.662;2023-02-20T05:47:50;100921.97;;;6.20;100.00
11041;BME280;5573;49.592;8.662;2023-02-20T05:50:18;100917.16;;;6.17;100.00
11041;BME280;5573;49.592;8.662;2023-02-20T05:52:45;100923.78;;;5.99;100.00
11041;BME280;5573;49.592;8.662;2023-02-20T05:55:13;100910.59;;;6.09;100.00
11041;BME280;5573;49.592;8.662;2023-02-20T05:57:42;100914.59;;;6.12;100.00
11041;BME280;5573;49.592;8.662;2023-02-20T06:00:11;100918.31;;;5.99;100.00
11041;BME280;5573;49.592;8.662;2023-02-20T06:02:39;100911.22;;;6.06;100.00
11041;BME280;5573;49.592;8.662;2023-02-20T06:05:07;100925.38;;;6.00;100.00
11041;BME280;5573;49.592;8.662;2023-02-20T06:07:35;100916.38;;;5.99;100.00
11041;BME280;5573;49.592;8.662;2023-02-20T06:10:03;100917.97;;;6.00;100.00
11041;BME280;5573;49.592;8.662;2023-02-20T06:12:31;100910.72;;;6.13;100.00
11041;BME280;5573;49.592;8.662;2023-02-20T06:15:00;100912.66;;;6.21;100.00
11041;BME280;5573;49.592;8.662;2023-02-20T06:17:27;100907.03;;;6.18;100.00
11041;BME280;5573;49.592;8.662;2023-02-20T06:19:56;100913.78;;;6.20;100.00
11041;BME280;5573;49.592;8.662;2023-02-20T06:22:23;100904.63;;;6.16;100.00
11041;BME280;5573;49.592;8.662;2023-02-20T06:24:51;100905.59;;;6.03;100.00
11041;BME280;5573;49.592;8.662;2023-02-20T06:27:19;100898.53;;;6.02;100.00
11041;BME280;5573;49.592;8.662;2023-02-20T06:29:47;100904.63;;;6.16;100.00
11041;BME280;5573;49.592;8.662;2023-02-20T06:32:16;100909.13;;;6.21;100.00
11041;BME280;5573;49.592;8.662;2023-02-20T06:34:44;100915.84;;;6.23;100.00
11041;BME280;5573;49.592;8.662;2023-02-20T06:37:12;100935.78;;;6.15;100.00
11041;BME280;5573;49.592;8.662;2023-02-20T06:39:40;100924.22;;;6.27;100.00
11041;BME280;5573;49.592;8.662;2023-02-20T06:42:11;100923.44;;;6.18;100.00
11041;BME280;5573;49.592;8.662;2023-02-20T06:44:38;100912.34;;;6.14;100.00
11041;BME280;5573;49.592;8.662;2023-02-20T06:47:06;100922.47;;;6.22;100.00
11041;BME280;5573;49.592;8.662;2023-02-20T06:52:05;100924.16;;;6.44;100.00
11041;BME280;5573;49.592;8.662;2023-02-20T06:54:33;100920.34;;;6.37;100.00
11041;BME280;5573;49.592;8.662;2023-02-20T06:57:01;100916.41;;;6.55;100.00
11041;BME280;5573;49.592;8.662;2023-02-20T06:59:29;100925.75;;;6.54;100.00
11041;BME280;5573;49.592;8.662;2023-02-20T07:01:57;100930.53;;;6.57;100.00
11041;BME280;5573;49.592;8.662;2023-02-20T07:04:25;100922.25;;;6.83;100.00
11041;BME280;5573;49.592;8.662;2023-02-20T07:06:53;100929.63;;;6.91;100.00
11041;BME280;5573;49.592;8.662;2023-02-20T07:09:22;100929.28;;;6.93;100.00
11041;BME280;5573;49.592;8.662;2023-02-20T07:11:51;100935.72;;;6.88;100.00
11041;BME280;5573;49.592;8.662;2023-02-20T07:14:19;100936.31;;;7.03;100.00
11041;BME280;5573;49.592;8.662;2023-02-20T07:16:47;100942.53;;;7.12;100.00
11041;BME280;5573;49.592;8.662;2023-02-20T07:19:15;100943.53;;;7.07;100.00
11041;BME280;5573;49.592;8.662;2023-02-20T07:21:45;100936.94;;;7.08;100.00
11041;BME280;5573;49.592;8.662;2023-02-20T07:24:13;100942.00;;;7.19;100.00
11041;BME280;5573;49.592;8.662;2023-02-20T07:26:42;100944.47;;;7.11;100.00
11041;BME280;5573;49.592;8.662;2023-02-20T07:29:11;100948.47;;;7.14;100.00
11041;BME280;5573;49.592;8.662;2023-02-20T07:31:39;100952.47;;;7.17;100.00
11041;BME280;5573;49.592;8.662;2023-02-20T07:34:07;100945.09;;;7.17;100.00
11041;BME280;5573;49.592;8.662;2023-02-20T07:36:37;100941.88;;;7.15;100.00
11041;BME280;5573;49.592;8.662;2023-02-20T07:39:05;100935.81;;;7.30;100.00
11041;BME280;5573;49.592;8.662;2023-02-20T07:41:33;100936.03;;;7.25;100.00
11041;BME280;5573;49.592;8.662;2023-02-20T07:44:05;100931.38;;;7.47;100.00
11041;BME280;5573;49.592;8.662;2023-02-20T07:46:33;100935.03;;;7.30;100.00
11041;BME280;5573;49.592;8.662;2023-02-20T07:49:01;100938.44;;;7.48;100.00
11041;BME280;5573;49.592;8.662;2023-02-20T07:51:29;100936.94;;;7.59;100.00
11041;BME280;5573;49.592;8.662;2023-02-20T07:53:57;100931.44;;;7.80;100.00
11041;BME280;5573;49.592;8.662;2023-02-20T07:56:25;100925.06;;;7.88;100.00
11041;BME280;5573;49.592;8.662;2023-02-20T07:58:53;100926.63;;;7.77;100.00
11041;BME280;5573;49.592;8.662;2023-02-20T08:01:22;100928.81;;;7.63;100.00
11041;BME280;5573;49.592;8.662;2023-02-20T08:03:50;100927.72;;;7.64;100.00
11041;BME280;5573;49.592;8.662;2023-02-20T08:06:18;100921.28;;;7.60;100.00
11041;BME280;5573;49.592;8.662;2023-02-20T08:08:47;100934.50;;;7.79;100.00
11041;BME280;5573;49.592;8.662;2023-02-20T08:11:16;100929.97;;;7.62;100.00
11041;BME280;5573;49.592;8.662;2023-02-20T08:13:44;100903.22;;;7.46;100.00
11041;BME280;5573;49.592;8.662;2023-02-20T08:16:12;100916.75;;;7.64;100.00
11041;BME280;5573;49.592;8.662;2023-02-20T08:18:42;100919.41;;;7.93;100.00
11041;BME280;5573;49.592;8.662;2023-02-20T08:21:09;100921.69;;;7.70;100.00
11041;BME280;5573;49.592;8.662;2023-02-20T08:23:37;100924.16;;;7.84;100.00
11041;BME280;5573;49.592;8.662;2023-02-20T08:26:05;100920.06;;;7.90;100.00
11041;BME280;5573;49.592;8.662;2023-02-20T08:28:32;100921.41;;;8.05;100.00
11041;BME280;5573;49.592;8.662;2023-02-20T08:31:00;100914.00;;;8.18;100.00
11041;BME280;5573;49.592;8.662;2023-02-20T08:33:28;100909.91;;;7.91;100.00
11041;BME280;5573;49.592;8.662;2023-02-20T08:35:57;100917.16;;;8.08;100.00
11041;BME280;5573;49.592;8.662;2023-02-20T08:38:28;100919.41;;;7.93;100.00
11041;BME280;5573;49.592;8.662;2023-02-20T08:40:56;100914.44;;;8.08;100.00
11041;BME280;5573;49.592;8.662;2023-02-20T08:43:24;100911.50;;;8.25;100.00
11041;BME280;5573;49.592;8.662;2023-02-20T08:45:54;100909.13;;;8.36;100.00
11041;BME280;5573;49.592;8.662;2023-02-20T08:48:21;100899.66;;;8.33;100.00
11041;BME280;5573;49.592;8.662;2023-02-20T08:50:50;100886.13;;;8.28;100.00
11041;BME280;5573;49.592;8.662;2023-02-20T08:53:19;100901.31;;;8.59;100.00
11041;BME280;5573;49.592;8.662;2023-02-20T08:55:46;100892.84;;;8.64;100.00
11041;BME280;5573;49.592;8.662;2023-02-20T08:58:17;100893.59;;;8.40;100.00
11041;BME280;5573;49.592;8.662;2023-02-20T09:00:45;100893.25;;;8.29;100.00
11041;BME280;5573;49.592;8.662;2023-02-20T09:03:13;100888.41;;;8.26;100.00
11041;BME280;5573;49.592;8.662;2023-02-20T09:05:41;100893.06;;;8.47;100.00
11041;BME280;5573;49.592;8.662;2023-02-20T09:08:09;100893.31;;;8.91;100.00
11041;BME280;5573;49.592;8.662;2023-02-20T09:10:38;100883.03;;;8.75;100.00
11041;BME280;5573;49.592;8.662;2023-02-20T09:13:06;100883.25;;;8.95;100.00
11041;BME280;5573;49.592;8.662;2023-02-20T09:15:34;100887.63;;;8.84;100.00
11041;BME280;5573;49.592;8.662;2023-02-20T09:18:05;100883.00;;;9.12;100.00
11041;BME280;5573;49.592;8.662;2023-02-20T09:20:35;100890.16;;;9.42;100.00
11041;BME280;5573;49.592;8.662;2023-02-20T09:23:04;100893.16;;;9.36;100.00
11041;BME280;5573;49.592;8.662;2023-02-20T09:25:32;100888.19;;;9.42;100.00
11041;BME280;5573;49.592;8.662;2023-02-20T09:28:01;100885.13;;;9.44;100.00
11041;BME280;5573;49.592;8.662;2023-02-20T09:30:29;100884.81;;;9.21;100.00
11041;BME280;5573;49.592;8.662;2023-02-20T09:32:57;100878.97;;;9.34;100.00
11041;BME280;5573;49.592;8.662;2023-02-20T09:35:27;100881.16;;;9.16;100.00
11041;BME280;5573;49.592;8.662;2023-02-20T09:37:56;100868.47;;;9.12;100.00
11041;BME280;5573;49.592;8.662;2023-02-20T09:40:25;100873.28;;;9.15;100.00
11041;BME280;5573;49.592;8.662;2023-02-20T09:43:12;100875.63;;;9.41;100.00
11041;BME280;5573;49.592;8.662;2023-02-20T09:45:46;100878.69;;;9.52;100.00
11041;BME280;5573;49.592;8.662;2023-02-20T09:48:27;100872.69;;;9.62;100.00
11041;BME280;5573;49.592;8.662;2023-02-20T09:51:01;100869.91;;;9.74;100.00
11041;BME280;5573;49.592;8.662;2023-02-20T09:53:33;100867.75;;;9.96;100.00
11041;BME280;5573;49.592;8.662;2023-02-20T09:56:03;100869.25;;;9.93;100.00
11041;BME280;5573;49.592;8.662;2023-02-20T09:58:40;100863.31;;;9.91;100.00
11041;BME280;5573;49.592;8.662;2023-02-20T10:01:13;100866.78;;;10.04;100.00
11041;BME280;5573;49.592;8.662;2023-02-20T10:03:51;100868.03;;;10.07;100.00
11041;BME280;5573;49.592;8.662;2023-02-20T10:06:22;100851.13;;;10.21;100.00
11041;BME280;5573;49.592;8.662;2023-02-20T10:08:52;100850.34;;;10.36;100.00
11041;BME280;5573;49.592;8.662;2023-02-20T10:11:31;100852.81;;;10.25;100.00
11041;BME280;5573;49.592;8.662;2023-02-20T10:14:17;100858.59;;;10.36;100.00
11041;BME280;5573;49.592;8.662;2023-02-20T10:16:50;100844.22;;;10.43;100.00
11041;BME280;5573;49.592;8.662;2023-02-20T10:19:26;100850.19;;;10.01;100.00
11041;BME280;5573;49.592;8.662;2023-02-20T10:22:03;100843.66;;;10.21;100.00
11041;BME280;5573;49.592;8.662;2023-02-20T10:24:49;100850.50;;;10.43;100.00
11041;BME280;5573;49.592;8.662;2023-02-20T10:27:30;100834.91;;;10.31;100.00
11041;BME280;5573;49.592;8.662;2023-02-20T10:30:02;100842.78;;;10.81;100.00
11041;BME280;5573;49.592;8.662;2023-02-20T10:32:36;100839.38;;;10.87;100.00
11041;BME280;5573;49.592;8.662;2023-02-20T10:35:08;100826.31;;;10.49;100.00
11041;BME280;5573;49.592;8.662;2023-02-20T10:37:39;100834.31;;;10.89;100.00
11041;BME280;5573;49.592;8.662;2023-02-20T10:40:19;100841.56;;;10.97;100.00
11041;BME280;5573;49.592;8.662;2023-02-20T10:42:54;100838.28;;;10.92;99.43
11041;BME280;5573;49.592;8.662;2023-02-20T10:45:32;100829.25;;;10.91;100.00
11041;BME280;5573;49.592;8.662;2023-02-20T10:48:05;100832.75;;;11.08;100.00
11041;BME280;5573;49.592;8.662;2023-02-20T10:50:38;100830.91;;;11.31;99.92
11041;BME280;5573;49.592;8.662;2023-02-20T10:53:15;100834.44;;;11.32;98.30
11041;BME280;5573;49.592;8.662;2023-02-20T10:55:49;100818.50;;;11.41;96.09
11041;BME280;5573;49.592;8.662;2023-02-20T10:58:24;100827.19;;;11.63;95.53
11041;BME280;5573;49.592;8.662;2023-02-20T11:00:57;100823.06;;;11.53;93.70
11041;BME280;5573;49.592;8.662;2023-02-20T11:03:35;100819.69;;;11.59;94.45
11041;BME280;5573;49.592;8.662;2023-02-20T11:06:08;100816.09;;;11.78;93.26
11041;BME280;5573;49.592;8.662;2023-02-20T11:08:39;100815.22;;;11.94;93.64
11041;BME280;5573;49.592;8.662;2023-02-20T11:11:19;100820.56;;;12.06;91.18
11041;BME280;5573;49.592;8.662;2023-02-20T11:13:48;100809.78;;;11.97;91.00
11041;BME280;5573;49.592;8.662;2023-02-20T11:16:24;100800.69;;;11.97;89.92
11041;BME280;5573;49.592;8.662;2023-02-20T11:19:01;100804.66;;;12.23;89.78
11041;BME280;5573;49.592;8.662;2023-02-20T11:21:38;100801.78;;;12.38;89.27
11041;BME280;5573;49.592;8.662;2023-02-20T11:24:27;100775.34;;;12.37;86.46
11041;BME280;5573;49.592;8.662;2023-02-20T11:26:59;100790.56;;;12.51;86.60
11041;BME280;5573;49.592;8.662;2023-02-20T11:29:34;100791.84;;;12.57;85.01
11041;BME280;5573;49.592;8.662;2023-02-20T11:32:25;100787.41;;;12.79;83.58
11041;BME280;5573;49.592;8.662;2023-02-20T11:35:14;100778.66;;;12.73;80.65
11041;BME280;5573;49.592;8.662;2023-02-20T11:37:48;100775.25;;;12.84;82.09
11041;BME280;5573;49.592;8.662;2023-02-20T11:40:26;100778.31;;;13.35;81.06
11041;BME280;5573;49.592;8.662;2023-02-20T11:42:54;100772.63;;;13.25;78.40
11041;BME280;5573;49.592;8.662;2023-02-20T11:45:23;100744.72;;;13.33;75.11
11041;BME280;5573;49.592;8.662;2023-02-20T11:48:08;100759.50;;;13.48;75.88
11041;BME280;5573;49.592;8.662;2023-02-20T11:50:40;100740.16;;;13.48;75.06
11041;BME280;5573;49.592;8.662;2023-02-20T11:53:19;100742.72;;;13.30;74.96
11041;BME280;5573;49.592;8.662;2023-02-20T11:55:48;100750.38;;;13.44;73.17
11041;BME280;5573;49.592;8.662;2023-02-20T11:58:26;100735.47;;;13.52;73.35
11041;BME280;5573;49.592;8.662;2023-02-20T12:00:54;100730.28;;;13.47;73.74
11041;BME280;5573;49.592;8.662;2023-02-20T12:03:25;100734.50;;;13.75;70.91
11041;BME280;5573;49.592;8.662;2023-02-20T12:05:55;100718.44;;;13.91;68.23
11041;BME280;5573;49.592;8.662;2023-02-20T12:08:39;100717.38;;;14.07;68.95
11041;BME280;5573;49.592;8.662;2023-02-20T12:11:12;100727.94;;;13.94;71.41
11041;BME280;5573;49.592;8.662;2023-02-20T12:13:43;100723.63;;;13.55;75.11
11041;BME280;5573;49.592;8.662;2023-02-20T12:16:24;100725.84;;;13.39;76.89
11041;BME280;5573;49.592;8.662;2023-02-20T12:19:02;100708.75;;;13.30;81.48
11041;BME280;5573;49.592;8.662;2023-02-20T12:21:45;100703.03;;;13.15;80.11
11041;BME280;5573;49.592;8.662;2023-02-20T12:24:29;100695.00;;;13.33;79.77
11041;BME280;5573;49.592;8.662;2023-02-20T12:27:12;100701.47;;;13.48;78.45
11041;BME280;5573;49.592;8.662;2023-02-20T12:29:50;100694.22;;;13.36;80.20
11041;BME280;5573;49.592;8.662;2023-02-20T12:32:31;100691.13;;;13.41;79.67
11041;BME280;5573;49.592;8.662;2023-02-20T12:35:23;100682.56;;;13.57;78.49
11041;BME280;5573;49.592;8.662;2023-02-20T12:38:01;100682.09;;;13.48;77.28
11041;BME280;5573;49.592;8.662;2023-02-20T12:40:43;100669.25;;;13.67;75.96
11041;BME280;5573;49.592;8.662;2023-02-20T12:43:24;100666.78;;;13.54;75.47
11041;BME280;5573;49.592;8.662;2023-02-20T12:46:04;100662.53;;;13.68;74.72
11041;BME280;5573;49.592;8.662;2023-02-20T12:48:41;100642.88;;;13.80;74.53
11041;BME280;5573;49.592;8.662;2023-02-20T12:51:23;100643.00;;;13.94;75.48
11041;BME280;5573;49.592;8.662;2023-02-20T12:54:14;100641.41;;;13.93;74.00
11041;BME280;5573;49.592;8.662;2023-02-20T12:56:56;100630.91;;;14.20;73.26
11041;BME280;5573;49.592;8.662;2023-02-20T12:59:28;100637.66;;;14.27;73.16
11041;BME280;5573;49.592;8.662;2023-02-20T13:02:01;100634.94;;;14.34;68.35
11041;BME280;5573;49.592;8.662;2023-02-20T13:04:38;100624.34;;;14.47;67.48
11041;BME280;5573;49.592;8.662;2023-02-20T13:07:16;100631.53;;;14.58;67.47
11041;BME280;5573;49.592;8.662;2023-02-20T13:09:56;100619.56;;;14.43;68.70
11041;BME280;5573;49.592;8.662;2023-02-20T13:12:26;100617.66;;;14.55;66.75
11041;BME280;5573;49.592;8.662;2023-02-20T13:15:11;100609.47;;;14.87;64.64
11041;BME280;5573;49.592;8.662;2023-02-20T13:17:46;100613.09;;;15.09;60.17
11041;BME280;5573;49.592;8.662;2023-02-20T13:20:18;100604.81;;;15.31;58.22
11041;BME280;5573;49.592;8.662;2023-02-20T13:23:03;100596.88;;;15.36;56.08
11041;BME280;5573;49.592;8.662;2023-02-20T13:25:38;100598.88;;;15.47;54.23
11041;BME280;5573;49.592;8.662;2023-02-20T13:28:32;100598.06;;;15.39;53.39
11041;BME280;5573;49.592;8.662;2023-02-20T13:31:22;100590.94;;;15.45;53.12
11041;BME280;5573;49.592;8.662;2023-02-20T13:34:21;100590.97;;;15.31;52.35